Terminal Aerodrome Forecast
Issued by NWS Boise, ID

Home | Current Version | Previous Version | Text Only | Print | Product List | Glossary On
Versions: 1 2 3 4 5 6 7 8 9 10 11 12 13 14 15 16 17 18 19 20 21 22 23 24 25 26 27 28
353
FTUS45 KBOI 042340
TAFBNO
TAF
KBNO 042340Z 0500/0524 10010KT P6SM VCTS SCT100CB OVC200
      TEMPO 0500/0501 VRB10G25KT -TSRA BKN100CB
     FM050600 27010KT P6SM -SHRA OVC120
     FM051200 27010KT P6SM VCSH BKN100=

USA.gov is the U.S. government's official web portal to all federal, state and local government web resources and services.